Time;durP1;ratioP1;P1;durP2;ratioP2;P2;SDS_P1;SDS_P2;PMS_P1;PMS_P2;Temp;Humidity;BMP_temperature;BMP_pressure;BME280_temperature;BME280_humidity;BME280_pressure;Samples;Min_cycle;Max_cycle;Signal;HPM_P1;HPM_P2
2021/05/05 00:00:13;;;;;;;5.45;2.80;;;;;;;7.55;75.85;92062.03;4967005;28;20125;-77
2021/05/05 00:02:42;;;;;;;6.82;2.80;;;;;;;7.51;75.96;92061.00;4968294;28;20038;-77
2021/05/05 00:05:08;;;;;;;5.60;2.60;;;;;;;7.44;76.10;92058.75;4970157;28;20311;-77
2021/05/05 00:07:34;;;;;;;6.03;2.70;;;;;;;7.39;76.40;92045.00;4957331;28;20477;-77
2021/05/05 00:10:00;;;;;;;6.88;2.97;;;;;;;7.41;76.89;92045.50;4970819;28;20066;-77
2021/05/05 00:12:26;;;;;;;5.45;2.90;;;;;;;7.39;76.72;92045.00;4973947;28;20043;-77
2021/05/05 00:14:52;;;;;;;6.90;2.97;;;;;;;7.38;77.07;92036.41;4964744;28;20030;-77
2021/05/05 00:17:18;;;;;;;7.53;3.05;;;;;;;7.38;77.29;92038.25;4964417;28;20051;-77
2021/05/05 00:19:43;;;;;;;5.05;2.78;;;;;;;7.38;77.69;92035.63;4967825;28;20588;-77
2021/05/05 00:22:09;;;;;;;4.28;2.80;;;;;;;7.32;77.71;92026.31;4971668;28;20047;-76
2021/05/05 00:24:35;;;;;;;6.18;3.05;;;;;;;7.25;78.20;92022.22;4972840;28;20038;-76
2021/05/05 00:27:00;;;;;;;7.63;3.13;;;;;;;7.19;77.69;92015.53;4961400;28;20171;-77
2021/05/05 00:29:26;;;;;;;5.57;3.08;;;;;;;7.13;77.71;92018.44;4957111;28;20465;-77
2021/05/05 00:31:52;;;;;;;7.63;3.05;;;;;;;7.07;78.05;92012.53;4962349;28;20050;-76
2021/05/05 00:34:17;;;;;;;6.47;3.03;;;;;;;7.01;77.84;92008.41;4957176;28;20031;-76
2021/05/05 00:36:43;;;;;;;4.85;2.80;;;;;;;6.96;78.10;92008.44;4971655;28;20043;-76
2021/05/05 00:39:09;;;;;;;6.00;2.95;;;;;;;6.91;78.38;92013.72;4954303;28;20035;-77
2021/05/05 00:41:34;;;;;;;5.07;2.80;;;;;;;6.84;78.94;92014.03;4956815;28;20043;-77
2021/05/05 00:44:00;;;;;;;5.28;3.00;;;;;;;6.82;78.96;92016.13;4966737;28;20038;-77
2021/05/05 00:46:26;;;;;;;6.35;3.10;;;;;;;6.78;78.71;92008.09;4950458;28;20038;-77
2021/05/05 00:48:51;;;;;;;7.63;3.33;;;;;;;6.78;78.91;92002.91;4973403;28;20105;-77
2021/05/05 00:51:17;;;;;;;6.15;3.47;;;;;;;6.77;79.20;92006.53;4959615;28;20513;-77
2021/05/05 00:53:43;;;;;;;5.90;3.10;;;;;;;6.75;79.30;91993.03;4955559;28;20130;-76
2021/05/05 00:56:09;;;;;;;6.28;3.15;;;;;;;6.74;79.44;91994.09;4964868;28;20049;-77
2021/05/05 00:58:35;;;;;;;6.85;3.75;;;;;;;6.74;80.08;91991.50;4955007;28;20062;-77
2021/05/05 01:01:02;;;;;;;8.63;3.58;;;;;;;6.75;80.16;91990.44;4963698;28;20571;-77
2021/05/05 01:03:29;;;;;;;6.70;3.50;;;;;;;6.73;80.03;91982.13;4967680;28;20312;-77
2021/05/05 01:05:55;;;;;;;7.85;3.30;;;;;;;6.68;80.13;91988.16;4952969;28;20516;-77
2021/05/05 01:08:22;;;;;;;5.97;3.47;;;;;;;6.65;80.13;91982.72;4964437;28;20090;-76
2021/05/05 01:10:49;;;;;;;9.50;3.42;;;;;;;6.59;80.49;91979.38;4955442;28;20133;-77
2021/05/05 01:13:17;;;;;;;6.45;3.10;;;;;;;6.55;80.30;91982.81;4959042;28;20039;-77
2021/05/05 01:15:44;;;;;;;6.68;3.45;;;;;;;6.48;80.04;91975.31;4954083;28;20408;-76
2021/05/05 01:18:10;;;;;;;6.95;3.30;;;;;;;6.47;80.18;91987.56;4973050;28;20034;-76
2021/05/05 01:20:37;;;;;;;7.88;3.20;;;;;;;6.45;80.19;91989.66;4964651;28;20043;-76
2021/05/05 01:23:03;;;;;;;7.47;2.88;;;;;;;6.43;80.09;91990.97;4954112;28;20038;-76
2021/05/05 01:25:29;;;;;;;6.47;3.40;;;;;;;6.44;80.07;91988.09;4959535;28;20057;-75
2021/05/05 01:27:55;;;;;;;6.00;3.38;;;;;;;6.47;80.12;91982.34;4971847;28;20077;-76
2021/05/05 01:30:22;;;;;;;7.55;3.53;;;;;;;6.55;80.21;91980.19;4955322;28;20070;-76
2021/05/05 01:32:49;;;;;;;8.65;3.35;;;;;;;6.43;80.43;91950.13;4967117;28;20037;-77
2021/05/05 01:35:17;;;;;;;6.95;3.45;;;;;;;6.70;80.78;91979.31;4965353;28;20118;-77
2021/05/05 01:37:44;;;;;;;8.02;4.00;;;;;;;6.80;80.88;91974.78;4959514;28;20066;-77
2021/05/05 01:40:18;;;;;;;7.00;3.58;;;;;;;6.88;80.85;91979.38;4953526;28;20401;-77
2021/05/05 01:42:44;;;;;;;;;;;;;;;6.96;80.49;91970.22;4962686;28;20043;-76
2021/05/05 01:45:10;;;;;;;6.10;3.80;;;;;;;6.89;80.43;91972.38;4970093;28;20399;-77
2021/05/05 01:47:36;;;;;;;5.47;3.40;;;;;;;6.97;80.39;91968.38;4952395;28;20036;-76
2021/05/05 01:50:05;;;;;;;7.45;3.53;;;;;;;6.83;80.61;91963.81;4961162;28;20027;-77
2021/05/05 01:52:30;;;;;;;7.18;3.67;;;;;;;6.75;80.99;91961.03;4964015;28;20035;-76
2021/05/05 01:54:56;;;;;;;6.75;3.60;;;;;;;6.68;80.77;91956.94;4965255;28;20540;-76
2021/05/05 01:57:31;;;;;;;6.00;3.67;;;;;;;6.67;81.09;91954.63;4953124;28;20047;-77
2021/05/05 01:59:59;;;;;;;7.53;3.72;;;;;;;6.61;81.23;91953.88;4966601;28;20039;-75
2021/05/05 02:02:30;;;;;;;5.68;3.80;;;;;;;6.61;81.12;91947.91;4965859;28;20066;-76
2021/05/05 02:04:56;;;;;;;6.72;3.78;;;;;;;6.60;80.82;91943.78;4969305;28;20579;-77
2021/05/05 02:07:34;;;;;;;5.32;3.50;;;;;;;6.59;80.74;91932.56;4970066;28;20045;-77
2021/05/05 02:10:00;;;;;;;7.28;3.88;;;;;;;6.57;80.89;91937.28;4962156;28;20063;-76
2021/05/05 02:12:28;;;;;;;6.38;3.80;;;;;;;6.57;80.83;91929.47;4949271;28;20043;-75
2021/05/05 02:14:54;;;;;;;7.50;3.70;;;;;;;6.59;80.77;91931.81;4963605;28;20035;-77
2021/05/05 02:17:20;;;;;;;6.60;3.72;;;;;;;6.58;80.82;91920.63;4955115;28;20539;-77
2021/05/05 02:19:46;;;;;;;7.07;4.40;;;;;;;6.63;81.13;91919.81;4963670;28;20394;-76
2021/05/05 02:22:13;;;;;;;7.47;3.95;;;;;;;6.60;81.72;91899.56;4966551;28;20057;-76
2021/05/05 02:24:39;;;;;;;8.32;4.07;;;;;;;6.65;82.00;91897.66;4969858;28;20046;-76
2021/05/05 02:27:06;;;;;;;5.90;3.35;;;;;;;6.66;81.51;91901.03;4954055;28;20412;-76
2021/05/05 02:29:32;;;;;;;8.05;4.65;;;;;;;6.68;81.50;91901.53;4966057;28;20065;-76
2021/05/05 02:32:20;;;;;;;8.57;4.20;;;;;;;6.77;81.06;91897.28;4955090;28;20050;-76
2021/05/05 02:34:47;;;;;;;6.07;3.85;;;;;;;6.72;81.14;91889.53;4957715;28;20046;-76
2021/05/05 02:37:13;;;;;;;8.90;4.38;;;;;;;6.72;81.24;91881.75;4952046;28;20379;-76
2021/05/05 02:39:41;;;;;;;7.50;4.40;;;;;;;6.76;82.16;91869.72;4933702;28;20049;-76
2021/05/05 02:42:13;;;;;;;8.15;4.10;;;;;;;6.68;81.99;91862.53;4942427;28;20118;-76
2021/05/05 02:44:41;;;;;;;9.68;4.60;;;;;;;6.71;82.33;91864.59;4950955;29;20054;-75
2021/05/05 02:47:07;;;;;;;6.45;4.20;;;;;;;6.75;82.63;91862.97;4957250;28;20031;-77
2021/05/05 02:49:33;;;;;;;7.10;4.50;;;;;;;6.85;82.19;91862.88;4951040;29;20529;-76
2021/05/05 02:52:03;;;;;;;11.63;4.88;;;;;;;6.80;82.24;91855.13;4959469;28;20019;-77
2021/05/05 02:54:30;;;;;;;7.50;4.25;;;;;;;6.79;82.40;91863.97;4969280;28;20058;-76
2021/05/05 02:56:56;;;;;;;9.80;4.10;;;;;;;6.76;81.94;91843.72;4969827;28;20039;-77
2021/05/05 02:59:24;;;;;;;6.22;4.10;;;;;;;6.79;82.38;91848.34;4970676;28;20034;-77
2021/05/05 03:01:51;;;;;;;10.55;4.22;;;;;;;6.78;82.46;91846.81;4963678;28;20358;-77
2021/05/05 03:04:17;;;;;;;6.25;4.15;;;;;;;6.78;82.56;91852.03;4959137;28;20066;-76
2021/05/05 03:06:42;;;;;;;6.65;4.45;;;;;;;6.76;82.82;91856.72;4951354;28;20586;-77
2021/05/05 03:09:08;;;;;;;6.93;4.13;;;;;;;6.75;82.33;91855.16;4953031;28;20035;-77
2021/05/05 03:11:34;;;;;;;6.18;4.50;;;;;;;6.78;82.54;91862.44;4951757;28;20581;-77
2021/05/05 03:13:59;;;;;;;7.20;4.47;;;;;;;6.79;82.46;91863.97;4967259;28;20034;-77
2021/05/05 03:16:25;;;;;;;6.28;4.05;;;;;;;6.79;82.03;91858.00;4948162;28;20035;-77
2021/05/05 03:18:52;;;;;;;6.78;4.35;;;;;;;6.79;82.16;91858.75;4950505;28;20117;-77
2021/05/05 03:21:19;;;;;;;5.38;3.90;;;;;;;6.78;82.07;91851.25;4958534;28;20038;-77
2021/05/05 03:23:46;;;;;;;7.07;3.83;;;;;;;6.81;82.07;91855.91;4949335;28;20043;-74
2021/05/05 03:26:11;;;;;;;6.03;4.07;;;;;;;6.82;82.46;91860.03;4951720;28;20035;-77
2021/05/05 03:28:37;;;;;;;10.27;4.38;;;;;;;6.83;82.22;91859.75;4958234;28;20095;-76
2021/05/05 03:31:03;;;;;;;6.85;4.00;;;;;;;6.84;82.33;91858.69;4950250;28;20035;-76
2021/05/05 03:33:28;;;;;;;5.53;3.60;;;;;;;6.87;82.12;91852.19;4952553;28;20213;-77
2021/05/05 03:35:54;;;;;;;11.32;3.80;;;;;;;6.86;82.12;91848.03;4942900;28;20588;-77
2021/05/05 03:38:20;;;;;;;5.80;3.80;;;;;;;6.85;82.50;91862.88;4954636;28;20502;-77
2021/05/05 03:40:46;;;;;;;6.43;3.58;;;;;;;6.84;82.43;91876.91;4967583;28;20027;-77
2021/05/05 03:43:12;;;;;;;5.72;3.63;;;;;;;6.86;82.50;91880.00;4950818;28;20515;-77
2021/05/05 03:45:37;;;;;;;10.52;3.40;;;;;;;6.89;82.20;91886.50;4960802;28;20035;-77
2021/05/05 03:48:04;;;;;;;6.22;3.65;;;;;;;6.92;81.96;91869.56;4970282;28;20513;-76
2021/05/05 03:50:31;;;;;;;6.80;3.25;;;;;;;6.92;82.76;91853.97;4960659;28;20497;-77
2021/05/05 03:52:57;;;;;;;6.72;3.22;;;;;;;6.88;82.86;91867.50;4963752;28;20547;-76
2021/05/05 03:55:23;;;;;;;6.38;3.70;;;;;;;6.86;82.49;91867.00;4974287;28;20041;-77
2021/05/05 03:57:48;;;;;;;6.10;3.42;;;;;;;6.90;82.90;91880.25;4966109;28;20500;-77
2021/05/05 04:00:15;;;;;;;5.38;3.05;;;;;;;6.91;83.23;91875.81;4967256;28;20038;-77
2021/05/05 04:02:41;;;;;;;7.45;3.55;;;;;;;6.94;83.89;91885.69;4973797;28;20049;-76
2021/05/05 04:05:07;;;;;;;4.25;3.33;;;;;;;6.95;83.73;91882.00;4961890;28;20117;-76
2021/05/05 04:07:33;;;;;;;7.75;3.40;;;;;;;7.02;83.73;91893.63;4957778;28;20039;-76
2021/05/05 04:09:59;;;;;;;4.43;2.92;;;;;;;7.03;84.00;91891.81;4961210;28;20031;-77
2021/05/05 04:12:28;;;;;;;5.60;3.00;;;;;;;7.03;83.60;91889.22;4973396;28;20039;-77
2021/05/05 04:14:53;;;;;;;6.30;3.40;;;;;;;7.07;83.24;91895.41;4947227;28;20050;-77
2021/05/05 04:17:19;;;;;;;6.88;3.30;;;;;;;7.09;83.48;91903.69;4976262;28;20058;-77
2021/05/05 04:19:45;;;;;;;5.45;2.95;;;;;;;7.09;83.35;91909.69;4962604;28;20026;-75
2021/05/05 04:22:11;;;;;;;6.70;2.83;;;;;;;7.13;82.55;91904.69;4962314;28;20528;-77
2021/05/05 04:24:37;;;;;;;5.18;2.70;;;;;;;7.17;82.72;91897.88;4962242;28;20046;-77
2021/05/05 04:27:02;;;;;;;5.10;2.60;;;;;;;7.24;82.58;91903.53;4962755;28;20039;-76
2021/05/05 04:29:28;;;;;;;6.63;3.08;;;;;;;7.21;82.60;91896.28;4968923;28;20481;-77
2021/05/05 04:31:54;;;;;;;6.85;2.90;;;;;;;7.23;82.13;91894.16;4960143;28;20456;-77
2021/05/05 04:34:20;;;;;;;6.32;3.03;;;;;;;7.26;82.39;91893.59;4959462;28;20038;-77
2021/05/05 04:36:46;;;;;;;7.15;2.80;;;;;;;7.29;82.78;91894.88;4964039;28;20127;-77
2021/05/05 04:39:12;;;;;;;5.35;2.80;;;;;;;7.30;83.18;91897.19;4970353;28;20125;-77
2021/05/05 04:41:38;;;;;;;5.55;2.95;;;;;;;7.39;82.84;91888.78;4965823;28;20073;-78
2021/05/05 04:44:04;;;;;;;7.22;3.30;;;;;;;7.26;83.96;91883.19;4965964;28;20497;-79
2021/05/05 04:46:30;;;;;;;5.70;2.75;;;;;;;7.32;83.42;91883.13;4966092;28;20053;-78
2021/05/05 04:48:55;;;;;;;7.82;3.00;;;;;;;7.34;83.48;91886.22;4968675;28;20031;-78
2021/05/05 04:51:21;;;;;;;5.50;3.10;;;;;;;7.39;83.56;91892.16;4957954;28;20046;-79
2021/05/05 04:53:47;;;;;;;5.57;3.20;;;;;;;7.41;83.12;91889.28;4962209;28;20532;-77
2021/05/05 04:56:12;;;;;;;6.47;3.05;;;;;;;7.45;82.69;91898.06;4965525;28;20053;-79
2021/05/05 04:58:38;;;;;;;5.78;2.97;;;;;;;7.45;82.14;91887.63;4961134;28;20047;-78
2021/05/05 05:01:04;;;;;;;5.35;2.90;;;;;;;7.48;81.96;91881.88;4970859;28;20037;-78
2021/05/05 05:03:30;;;;;;;8.75;3.08;;;;;;;7.53;82.53;91878.44;4965160;28;20134;-79
2021/05/05 05:05:55;;;;;;;5.82;3.00;;;;;;;7.56;81.98;91886.44;4963836;28;20118;-79
2021/05/05 05:08:21;;;;;;;4.97;2.83;;;;;;;7.58;82.24;91881.72;4960325;28;20039;-79
2021/05/05 05:10:47;;;;;;;4.97;2.80;;;;;;;7.64;81.49;91877.22;4970951;28;20043;-76
2021/05/05 05:13:13;;;;;;;5.55;2.97;;;;;;;7.67;81.95;91867.00;4964386;28;20038;-77
2021/05/05 05:15:38;;;;;;;6.55;2.75;;;;;;;7.61;82.75;91862.94;4958037;28;20050;-78
2021/05/05 05:18:04;;;;;;;5.43;2.90;;;;;;;7.60;83.03;91858.78;4958652;28;20091;-78
2021/05/05 05:20:30;;;;;;;5.45;2.72;;;;;;;7.56;83.38;91849.22;4959562;28;20034;-80
2021/05/05 05:22:56;;;;;;;4.55;2.67;;;;;;;7.44;84.05;91854.84;4968682;28;20062;-78
2021/05/05 05:25:24;;;;;;;4.63;2.80;;;;;;;7.45;83.90;91859.78;4962010;28;20393;-78
2021/05/05 05:27:50;;;;;;;6.65;3.20;;;;;;;7.55;82.89;91858.84;4968996;28;20051;-78
2021/05/05 05:30:17;;;;;;;6.70;2.78;;;;;;;7.64;82.17;91846.75;4971019;28;20102;-78
2021/05/05 05:32:43;;;;;;;5.00;2.80;;;;;;;7.71;81.39;91856.81;4964941;28;20042;-79
2021/05/05 05:35:09;;;;;;;6.85;3.45;;;;;;;7.78;81.21;91856.44;4964884;28;20067;-79
2021/05/05 05:37:35;;;;;;;6.07;2.88;;;;;;;8.00;80.67;91861.84;4968127;28;20110;-77
2021/05/05 05:40:01;;;;;;;6.65;2.85;;;;;;;8.02;80.85;91858.97;4970719;28;20077;-78
2021/05/05 05:42:27;;;;;;;5.53;2.72;;;;;;;7.74;80.78;91850.25;4969713;28;20042;-77
2021/05/05 05:44:52;;;;;;;5.25;2.60;;;;;;;7.81;81.04;91855.88;4968569;28;20468;-77
2021/05/05 05:47:18;;;;;;;4.30;2.60;;;;;;;7.93;80.83;91848.41;4966663;28;20041;-77
2021/05/05 05:49:43;;;;;;;6.13;2.92;;;;;;;8.00;80.01;91848.81;4961114;28;20046;-77
2021/05/05 05:52:09;;;;;;;4.88;2.97;;;;;;;8.05;78.87;91850.56;4958303;28;20130;-78
2021/05/05 05:54:35;;;;;;;5.15;3.28;;;;;;;8.04;78.98;91852.41;4959396;28;20438;-78
2021/05/05 05:57:01;;;;;;;5.10;3.00;;;;;;;7.96;78.67;91841.84;4953888;28;20174;-77
2021/05/05 05:59:27;;;;;;;6.45;3.20;;;;;;;8.07;78.54;91838.78;4961174;28;20038;-78
2021/05/05 06:01:52;;;;;;;6.50;3.17;;;;;;;8.13;77.93;91840.25;4961818;28;20050;-77
2021/05/05 06:04:18;;;;;;;6.90;3.45;;;;;;;8.00;78.82;91838.38;4968652;28;20038;-77
2021/05/05 06:06:44;;;;;;;6.25;3.65;;;;;;;8.10;78.06;91832.97;4952949;28;20042;-77
2021/05/05 06:09:11;;;;;;;5.68;3.20;;;;;;;8.24;77.80;91827.03;4981906;28;20565;-77
2021/05/05 06:11:36;;;;;;;5.53;3.47;;;;;;;8.36;77.27;91829.19;4972505;28;20567;-78
2021/05/05 06:14:04;;;;;;;5.00;3.17;;;;;;;8.32;77.50;91834.19;4977251;28;20114;-78
2021/05/05 06:16:30;;;;;;;7.50;3.20;;;;;;;8.39;77.79;91839.03;4960164;28;20497;-79
2021/05/05 06:18:55;;;;;;;5.97;3.55;;;;;;;8.43;76.61;91843.44;4975193;28;20090;-79
2021/05/05 06:21:23;;;;;;;5.03;3.03;;;;;;;8.41;76.17;91845.53;4971998;28;20106;-78
2021/05/05 06:23:48;;;;;;;5.38;2.80;;;;;;;8.34;76.06;91853.72;4965219;28;20035;-76
2021/05/05 06:26:14;;;;;;;5.22;3.00;;;;;;;8.35;76.72;91849.25;4973361;28;20045;-79
2021/05/05 06:28:39;;;;;;;6.15;2.92;;;;;;;8.36;77.22;91853.44;4969494;28;20042;-77
2021/05/05 06:31:05;;;;;;;7.25;2.70;;;;;;;8.39;77.62;91855.47;4962324;28;20113;-77
2021/05/05 06:33:31;;;;;;;6.55;2.75;;;;;;;8.38;77.52;91856.53;4970904;28;20035;-77
2021/05/05 06:35:57;;;;;;;6.38;2.83;;;;;;;8.35;78.12;91872.72;4968844;28;20539;-77
2021/05/05 06:38:23;;;;;;;4.40;2.70;;;;;;;8.11;78.17;91865.06;4967793;28;20058;-77
2021/05/05 06:40:49;;;;;;;6.68;2.80;;;;;;;8.05;79.00;91840.13;4970049;28;20042;-77
2021/05/05 06:43:14;;;;;;;6.78;3.53;;;;;;;8.07;79.20;91833.56;4970638;28;20022;-77
2021/05/05 06:45:40;;;;;;;6.03;3.10;;;;;;;8.06;79.04;91832.03;4970452;28;20073;-77
2021/05/05 06:48:06;;;;;;;5.65;2.60;;;;;;;8.01;79.44;91839.91;4971118;28;20066;-77
2021/05/05 06:50:32;;;;;;;5.40;2.97;;;;;;;8.02;79.49;91845.94;4971470;28;20042;-77
2021/05/05 06:52:57;;;;;;;5.40;3.05;;;;;;;8.02;79.76;91846.69;4970781;28;20030;-77
2021/05/05 06:55:24;;;;;;;5.85;2.85;;;;;;;8.07;79.14;91851.81;4970919;28;20038;-77
2021/05/05 06:57:50;;;;;;;6.78;2.67;;;;;;;8.11;79.13;91854.63;4965700;28;20039;-77
2021/05/05 07:00:17;;;;;;;5.55;2.85;;;;;;;8.13;79.21;91852.53;4971405;28;20035;-76
2021/05/05 07:02:42;;;;;;;5.97;2.75;;;;;;;8.14;79.84;91849.59;4971620;28;20050;-77
2021/05/05 07:05:09;;;;;;;4.82;2.63;;;;;;;8.16;79.51;91851.16;4971753;28;20027;-76
2021/05/05 07:07:35;;;;;;;5.72;3.03;;;;;;;8.23;79.38;91851.56;4969791;28;20093;-77
2021/05/05 07:10:00;;;;;;;4.65;3.20;;;;;;;8.25;79.06;91844.25;4971659;28;20030;-76
2021/05/05 07:12:26;;;;;;;5.50;2.63;;;;;;;8.28;78.71;91844.41;4970260;28;20042;-77
2021/05/05 07:14:53;;;;;;;7.50;2.80;;;;;;;8.32;78.63;91839.41;4971514;28;20034;-77
2021/05/05 07:17:19;;;;;;;4.72;2.97;;;;;;;8.33;79.27;91840.94;4969546;28;20046;-77
2021/05/05 07:19:44;;;;;;;5.97;3.00;;;;;;;8.39;78.50;91839.03;4971541;28;20027;-77
2021/05/05 07:22:10;;;;;;;6.55;2.92;;;;;;;8.39;78.49;91834.59;4971119;28;20412;-77
2021/05/05 07:24:38;;;;;;;7.18;3.10;;;;;;;8.43;78.27;91830.38;4971439;28;20397;-77
2021/05/05 07:27:04;;;;;;;6.60;3.25;;;;;;;8.50;77.79;91836.00;4954350;28;20087;-77
2021/05/05 07:29:29;;;;;;;8.60;3.25;;;;;;;8.59;77.13;91843.16;4952249;28;20121;-77
2021/05/05 07:31:55;;;;;;;6.95;3.03;;;;;;;8.57;77.49;91840.06;4964866;28;20083;-77
2021/05/05 07:34:23;;;;;;;4.85;3.08;;;;;;;8.64;77.43;91843.06;4969365;28;20121;-77
2021/05/05 07:36:50;;;;;;;5.30;3.00;;;;;;;8.53;77.34;91840.66;4938002;28;20047;-77
2021/05/05 07:47:33;;;;;;;6.55;3.25;;;;;;;8.70;76.77;91834.06;4970770;28;20404;-77
2021/05/05 07:50:00;;;;;;;7.53;3.13;;;;;;;8.75;76.50;91836.59;4969858;28;20034;-76
2021/05/05 07:52:25;;;;;;;6.97;3.10;;;;;;;8.77;76.54;91841.53;4967379;28;20102;-77
2021/05/05 07:54:51;;;;;;;6.60;3.20;;;;;;;8.77;76.76;91821.41;4951648;28;20122;-77
2021/05/05 07:57:19;;;;;;;5.10;2.92;;;;;;;8.85;76.77;91822.56;4970618;28;20469;-77
2021/05/05 07:59:45;;;;;;;6.18;2.92;;;;;;;8.89;76.37;91829.53;4952168;28;20561;-77
2021/05/05 08:02:10;;;;;;;5.72;2.92;;;;;;;8.93;76.06;91833.09;4950372;29;20027;-77
2021/05/05 08:04:36;;;;;;;5.05;2.90;;;;;;;8.91;76.28;91830.00;4951547;28;20090;-77
2021/05/05 08:07:02;;;;;;;5.22;2.78;;;;;;;8.97;76.17;91833.28;4965712;28;20388;-77
2021/05/05 08:09:28;;;;;;;4.45;2.90;;;;;;;9.02;76.11;91830.56;4950500;29;20236;-77
2021/05/05 08:11:53;;;;;;;5.60;3.00;;;;;;;9.10;76.29;91826.53;4951891;28;20031;-77
2021/05/05 08:14:20;;;;;;;6.03;2.85;;;;;;;9.18;75.75;91833.66;4951964;28;20509;-77
2021/05/05 08:16:46;;;;;;;5.97;3.17;;;;;;;9.22;75.34;91826.00;4953120;28;20042;-77
2021/05/05 08:19:13;;;;;;;5.18;2.78;;;;;;;9.09;74.91;91830.19;4951368;28;20039;-77
2021/05/05 08:21:40;;;;;;;6.65;2.75;;;;;;;9.17;75.26;91830.28;4952162;28;20039;-77
2021/05/05 08:24:06;;;;;;;6.20;2.70;;;;;;;9.18;74.55;91823.19;4949634;28;20062;-77
2021/05/05 08:26:32;;;;;;;9.82;2.85;;;;;;;9.32;73.88;91816.13;4953825;28;20441;-78
2021/05/05 08:28:58;;;;;;;4.97;2.42;;;;;;;9.49;74.45;91825.94;4970969;28;20034;-77
2021/05/05 08:31:24;;;;;;;6.25;2.65;;;;;;;9.61;72.95;91825.41;4972275;28;20500;-77
2021/05/05 08:33:50;;;;;;;7.07;2.22;;;;;;;9.83;71.24;91823.91;4973273;28;20035;-76
2021/05/05 08:36:16;;;;;;;5.25;2.45;;;;;;;9.83;70.92;91821.28;4962427;28;20051;-78
2021/05/05 08:38:42;;;;;;;5.63;2.28;;;;;;;9.94;70.33;91822.59;4974604;28;20047;-76
2021/05/05 08:41:11;;;;;;;4.05;2.30;;;;;;;10.03;70.09;91825.25;4962822;28;20046;-77
2021/05/05 08:43:37;;;;;;;7.28;2.42;;;;;;;10.07;70.55;91829.59;4972120;28;20378;-76
2021/05/05 08:46:06;;;;;;;4.55;2.50;;;;;;;9.88;72.14;91823.78;4956273;28;20118;-76
2021/05/05 08:48:31;;;;;;;4.22;2.67;;;;;;;9.85;71.97;91829.59;4954288;28;20485;-77
2021/05/05 08:50:57;;;;;;;3.75;2.30;;;;;;;9.49;72.20;91827.78;4953321;29;20043;-77
2021/05/05 08:53:23;;;;;;;6.53;2.58;;;;;;;9.44;73.55;91828.66;4962843;28;20027;-75
2021/05/05 08:55:49;;;;;;;6.85;2.63;;;;;;;9.37;71.71;91836.91;4973270;28;20061;-75
2021/05/05 08:58:14;;;;;;;4.13;2.45;;;;;;;9.60;72.32;91818.66;4969992;28;20514;-75
2021/05/05 09:00:40;;;;;;;5.43;2.65;;;;;;;9.71;71.63;91811.38;4971778;28;20066;-75
2021/05/05 09:03:07;;;;;;;5.82;2.88;;;;;;;10.01;72.33;91812.47;4972506;28;20110;-75
2021/05/05 09:06:05;;;;;;;4.78;2.30;;;;;;;10.28;69.74;91806.31;4973667;28;20039;-75
2021/05/05 09:08:32;;;;;;;4.13;2.10;;;;;;;10.48;67.60;91806.91;4959212;28;20134;-75
2021/05/05 09:11:03;;;;;;;4.20;2.03;;;;;;;10.10;67.99;91805.47;4972919;28;20031;-75
2021/05/05 09:13:54;;;;;;;4.55;2.00;;;;;;;10.40;68.52;91808.41;4974231;28;20105;-75
2021/05/05 09:16:24;;;;;;;3.60;2.13;;;;;;;10.39;68.73;91812.88;4973635;28;20039;-75
2021/05/05 09:18:54;;;;;;;7.00;2.58;;;;;;;10.24;68.31;91810.59;4972453;28;20045;-75
2021/05/05 09:21:27;;;;;;;4.20;2.28;;;;;;;10.54;68.13;91808.34;4958607;28;20039;-75
2021/05/05 09:24:12;;;;;;;4.15;2.47;;;;;;;10.45;69.43;91797.81;4971496;28;20047;-75
2021/05/05 09:26:38;;;;;;;6.03;2.60;;;;;;;10.90;68.00;91786.41;4961322;28;20130;-75
2021/05/05 09:29:04;;;;;;;3.60;1.88;;;;;;;10.99;66.39;91795.84;4965383;28;20042;-75
2021/05/05 09:31:34;;;;;;;5.43;2.13;;;;;;;11.06;65.89;91810.34;4969895;28;20043;-75
2021/05/05 09:34:01;;;;;;;4.32;1.95;;;;;;;11.23;65.71;91795.41;4953829;28;20400;-75
2021/05/05 09:36:26;;;;;;;3.33;1.80;;;;;;;11.15;65.90;91793.56;4970223;28;20063;-76
2021/05/05 09:38:53;;;;;;;5.57;2.17;;;;;;;11.08;66.69;91793.25;4966952;28;20079;-75
2021/05/05 09:41:28;;;;;;;4.75;2.20;;;;;;;10.51;68.15;91788.75;4960242;28;20039;-75
2021/05/05 09:43:59;;;;;;;3.92;2.08;;;;;;;10.96;67.02;91799.06;4954377;28;20039;-75
2021/05/05 09:49:29;;;;;;;4.65;2.20;;;;;;;11.10;68.25;91798.97;4954183;28;20118;-75
2021/05/05 09:52:09;;;;;;;4.68;2.30;;;;;;;10.77;67.85;91798.56;4954215;28;20039;-75
2021/05/05 09:54:54;;;;;;;5.40;2.53;;;;;;;11.30;66.44;91792.34;4955330;28;20147;-76
2021/05/05 09:57:22;;;;;;;6.18;2.53;;;;;;;11.63;64.52;91792.66;4964066;28;20058;-77
2021/05/05 10:00:17;;;;;;;8.65;2.53;;;;;;;12.06;66.91;91778.75;4971682;28;20054;-75
2021/05/05 10:02:48;;;;;;;6.65;2.88;;;;;;;12.31;64.30;91778.25;4962815;28;20046;-76
2021/05/05 10:05:20;;;;;;;5.38;2.33;;;;;;;12.58;64.69;91767.34;4955411;28;20357;-75
2021/05/05 10:07:55;;;;;;;3.65;1.92;;;;;;;12.56;63.68;91771.38;4954777;28;20493;-77
2021/05/05 10:10:25;;;;;;;3.80;2.22;;;;;;;12.24;61.65;91779.50;4952923;28;20662;-75
2021/05/05 10:12:53;;;;;;;4.05;2.40;;;;;;;11.75;61.90;91771.06;4958615;28;20482;-75
2021/05/05 10:15:19;;;;;;;7.50;2.58;;;;;;;12.34;63.24;91767.91;4964608;28;20039;-76
2021/05/05 10:17:49;;;;;;;5.47;2.35;;;;;;;12.38;62.27;91771.44;4962204;28;20037;-76
2021/05/05 10:20:18;;;;;;;4.50;2.42;;;;;;;12.25;65.07;91773.19;4972381;28;20034;-75
2021/05/05 10:22:44;;;;;;;5.00;2.58;;;;;;;12.48;62.93;91771.09;4967277;28;20548;-75
2021/05/05 10:25:14;;;;;;;6.95;2.90;;;;;;;12.57;61.81;91763.19;4935926;28;20119;-76
2021/05/05 10:27:39;;;;;;;6.00;2.53;;;;;;;12.36;62.25;91772.84;4952550;28;20035;-75
2021/05/05 10:30:07;;;;;;;4.57;2.60;;;;;;;12.59;61.53;91755.78;4965650;28;20042;-76
2021/05/05 10:32:33;;;;;;;4.95;2.60;;;;;;;12.95;61.45;91762.41;4967358;28;20035;-76
2021/05/05 10:34:59;;;;;;;3.75;2.25;;;;;;;11.99;64.40;91759.34;4969249;28;20062;-75
2021/05/05 10:37:43;;;;;;;4.50;2.80;;;;;;;12.45;62.55;91760.44;4967610;28;20035;-77
2021/05/05 10:40:15;;;;;;;6.88;3.33;;;;;;;13.12;61.55;91754.41;4962526;28;20454;-77
2021/05/05 10:42:58;;;;;;;4.40;2.28;;;;;;;13.58;60.06;91751.16;4970339;28;20492;-76
2021/05/05 10:45:36;;;;;;;4.28;2.50;;;;;;;12.91;59.96;91746.50;4956671;28;20039;-77
2021/05/05 10:48:12;;;;;;;4.00;2.10;;;;;;;13.03;61.97;91758.16;4970806;28;20389;-76
2021/05/05 10:50:47;;;;;;;7.07;2.40;;;;;;;12.17;62.25;91755.59;4951240;28;20043;-77
2021/05/05 10:53:14;;;;;;;5.25;2.20;;;;;;;12.88;60.08;91756.88;4965021;28;20413;-76
2021/05/05 10:55:48;;;;;;;3.70;2.15;;;;;;;12.64;61.23;91758.22;4951711;28;20039;-76
2021/05/05 10:58:25;;;;;;;6.50;2.88;;;;;;;12.59;59.70;91752.38;4951451;28;20038;-77
2021/05/05 11:00:55;;;;;;;4.60;2.40;;;;;;;13.11;59.07;91759.97;4950747;28;20723;-77
2021/05/05 11:03:43;;;;;;;5.03;2.25;;;;;;;13.21;59.49;91762.22;4952284;28;20042;-77
2021/05/05 11:06:34;;;;;;;3.78;2.10;;;;;;;12.98;60.78;91764.38;4952331;28;20038;-77
2021/05/05 11:09:12;;;;;;;5.75;2.30;;;;;;;12.27;62.77;91750.03;4951584;28;20506;-77
2021/05/05 11:11:40;;;;;;;4.80;2.10;;;;;;;12.71;61.56;91758.47;4964750;28;20434;-77
2021/05/05 11:14:06;;;;;;;5.20;2.60;;;;;;;12.24;60.91;91752.50;4951328;28;20106;-77
2021/05/05 11:17:05;;;;;;;4.07;2.38;;;;;;;12.45;60.10;91755.97;4973081;28;20440;-77
2021/05/05 11:22:06;;;;;;;4.43;2.30;;;;;;;13.12;59.85;91741.25;4962124;28;20227;-78
2021/05/05 11:24:38;;;;;;;5.43;2.60;;;;;;;12.29;62.09;91742.63;4957915;28;20031;-77
2021/05/05 11:27:05;;;;;;;;;;;;;;;13.24;60.64;91748.47;4953550;28;20177;-77
2021/05/05 11:29:50;;;;;;;8.10;2.58;;;;;;;13.07;60.19;91738.06;4955686;28;20227;-77
2021/05/05 11:32:21;;;;;;;4.82;2.25;;;;;;;12.26;63.33;91737.97;4968755;28;20041;-77
2021/05/05 11:34:48;;;;;;;5.15;2.53;;;;;;;12.28;63.51;91741.06;4969490;28;20510;-77
2021/05/05 11:37:14;;;;;;;3.50;2.30;;;;;;;11.92;64.72;91738.09;4971621;28;20041;-77
2021/05/05 11:39:45;;;;;;;5.80;2.72;;;;;;;12.15;63.82;91736.78;4971735;28;20043;-77
2021/05/05 11:42:15;;;;;;;4.07;2.50;;;;;;;12.25;63.24;91736.44;4971763;28;20040;-77
2021/05/05 11:44:49;;;;;;;5.78;2.95;;;;;;;12.00;63.46;91751.19;4953380;28;20134;-78
2021/05/05 11:47:19;;;;;;;7.38;3.10;;;;;;;12.14;63.19;91745.75;4953346;28;20039;-78
2021/05/05 11:50:08;;;;;;;4.97;2.90;;;;;;;11.95;63.95;91753.94;4954735;28;20256;-78
2021/05/05 11:52:39;;;;;;;5.30;2.90;;;;;;;12.05;63.09;91743.13;4973060;28;20039;-78
2021/05/05 11:55:08;;;;;;;5.90;2.85;;;;;;;12.19;63.18;91740.31;4970850;28;20043;-78